Time;durP1;ratioP1;P1;durP2;ratioP2;P2;SDS_P1;SDS_P2;PMS_P1;PMS_P2;Temp;Humidity;BMP_temperature;BMP_pressure;BME280_temperature;BME280_humidity;BME280_pressure;Samples;Min_cycle;Max_cycle;Signal;HPM_P1;HPM_P2
2022/03/15 00:01:04;;;;;;;24.02;7.18;;;4.70;99.90;;;;;;5090616;28;20036;-81
2022/03/15 00:03:30;;;;;;;25.88;7.50;;;4.70;99.90;;;;;;5085786;28;20044;-82
2022/03/15 00:05:55;;;;;;;22.00;7.28;;;4.70;99.90;;;;;;5092638;28;20115;-81
2022/03/15 00:08:21;;;;;;;28.38;7.50;;;4.60;99.90;;;;;;5094608;28;20070;-82
2022/03/15 00:10:48;;;;;;;25.58;7.63;;;4.60;99.90;;;;;;5091898;28;20051;-82
2022/03/15 00:13:15;;;;;;;20.30;8.13;;;4.60;99.90;;;;;;5095466;28;20482;-82
2022/03/15 00:15:42;;;;;;;31.10;8.82;;;4.50;99.90;;;;;;5090889;28;20117;-81
2022/03/15 00:18:08;;;;;;;22.70;8.35;;;4.50;99.90;;;;;;5092106;28;20119;-81
2022/03/15 00:20:35;;;;;;;27.13;7.93;;;4.50;99.90;;;;;;5077567;28;20104;-81
2022/03/15 00:23:00;;;;;;;27.65;7.53;;;4.40;99.90;;;;;;5084637;28;20462;-81
2022/03/15 00:25:27;;;;;;;23.25;7.75;;;4.40;99.90;;;;;;5088530;28;20071;-81
2022/03/15 00:27:54;;;;;;;26.38;8.07;;;4.40;99.90;;;;;;5090519;28;20479;-81
2022/03/15 00:30:22;;;;;;;23.58;7.75;;;4.40;99.90;;;;;;5077327;28;20040;-81
2022/03/15 00:32:48;;;;;;;;;;;4.40;99.90;;;;;;5078190;28;20040;-82
2022/03/15 00:35:18;;;;;;;28.63;9.13;;;4.40;99.90;;;;;;5094401;28;19934;-81
2022/03/15 00:37:49;;;;;;;29.08;8.35;;;4.30;99.90;;;;;;5092256;28;20051;-81
2022/03/15 00:40:17;;;;;;;26.05;8.38;;;4.30;99.90;;;;;;5095809;28;20040;-82
2022/03/15 00:42:49;;;;;;;34.42;8.50;;;4.30;99.90;;;;;;5093949;28;20036;-81
2022/03/15 00:45:15;;;;;;;24.98;8.38;;;4.30;99.90;;;;;;5088593;28;20044;-82
2022/03/15 00:47:41;;;;;;;26.33;8.30;;;4.30;99.90;;;;;;5087512;28;20056;-81
2022/03/15 00:50:07;;;;;;;23.90;7.95;;;4.30;99.90;;;;;;5090023;28;20052;-81
2022/03/15 00:52:33;;;;;;;27.75;8.93;;;4.20;99.90;;;;;;5095008;28;20052;-81
2022/03/15 00:54:59;;;;;;;24.15;8.23;;;4.20;99.90;;;;;;5095565;28;20367;-81
2022/03/15 00:57:24;;;;;;;28.52;8.75;;;4.20;99.90;;;;;;5093213;28;20115;-81
2022/03/15 00:59:50;;;;;;;28.27;10.02;;;4.20;99.90;;;;;;5091987;28;20060;-82
2022/03/15 01:02:16;;;;;;;29.08;9.88;;;4.20;99.90;;;;;;5090967;28;20443;-81
2022/03/15 01:04:41;;;;;;;21.70;8.57;;;4.20;99.90;;;;;;5093145;28;20040;-82
2022/03/15 01:07:07;;;;;;;23.00;8.95;;;4.20;99.90;;;;;;5094370;28;20067;-81
2022/03/15 01:09:35;;;;;;;31.38;8.75;;;4.20;99.90;;;;;;5080599;28;20421;-81
2022/03/15 01:12:01;;;;;;;31.02;9.50;;;4.80;99.90;;;;;;5094269;28;20090;-81
2022/03/15 01:14:27;;;;;;;26.48;9.05;;;4.10;99.90;;;;;;5095401;28;20055;-81
2022/03/15 01:16:55;;;;;;;29.15;10.00;;;4.10;99.90;;;;;;5094273;28;20036;-81
2022/03/15 01:19:22;;;;;;;40.72;9.50;;;4.10;99.90;;;;;;5076735;28;20047;-81
2022/03/15 01:21:48;;;;;;;25.35;9.32;;;4.10;99.90;;;;;;5088862;28;20087;-81
2022/03/15 01:24:13;;;;;;;29.92;10.30;;;4.00;99.90;;;;;;5094254;28;20068;-81
2022/03/15 01:26:39;;;;;;;24.92;10.38;;;4.00;99.90;;;;;;5090302;28;20032;-81
2022/03/15 01:29:05;;;;;;;21.80;9.88;;;4.00;99.90;;;;;;5088600;28;20046;-81
2022/03/15 01:31:31;;;;;;;30.25;11.55;;;4.00;99.90;;;;;;5093653;28;20040;-81
2022/03/15 01:33:57;;;;;;;32.00;11.73;;;4.00;99.90;;;;;;5092092;28;20078;-81
2022/03/15 01:36:23;;;;;;;28.02;10.60;;;4.00;99.90;;;;;;5097199;28;20048;-81
2022/03/15 01:38:52;;;;;;;27.92;10.50;;;4.00;99.90;;;;;;5108596;28;20379;-81
2022/03/15 01:41:18;;;;;;;30.70;11.55;;;4.00;99.90;;;;;;5092257;28;20044;-81
2022/03/15 01:43:46;;;;;;;37.83;11.45;;;4.70;99.90;;;;;;5102968;28;20043;-81
2022/03/15 01:46:12;;;;;;;36.95;10.85;;;3.90;99.90;;;;;;5087306;28;20048;-81
2022/03/15 01:48:39;;;;;;;36.53;11.98;;;3.90;99.90;;;;;;5092409;28;20438;-81
2022/03/15 01:51:05;;;;;;;33.92;11.73;;;3.90;99.90;;;;;;5085148;28;20062;-81
2022/03/15 01:53:32;;;;;;;26.58;11.60;;;3.90;99.90;;;;;;5091699;28;20076;-81
2022/03/15 01:55:59;;;;;;;31.73;12.23;;;3.90;99.90;;;;;;5082994;28;20051;-81
2022/03/15 01:58:25;;;;;;;28.73;11.53;;;3.80;99.90;;;;;;5091686;28;20046;-81
2022/03/15 02:00:51;;;;;;;31.23;11.35;;;3.80;99.90;;;;;;5094321;28;20400;-81
2022/03/15 02:03:17;;;;;;;37.40;13.68;;;5.10;99.90;;;;;;5093441;28;20114;-81
2022/03/15 02:05:43;;;;;;;29.80;12.00;;;3.80;99.90;;;;;;5094297;28;20087;-81
2022/03/15 02:08:13;;;;;;;34.60;14.10;;;4.20;99.90;;;;;;5095075;28;20039;-81
2022/03/15 02:10:39;;;;;;;33.15;13.23;;;3.80;99.90;;;;;;5084096;28;20206;-81
2022/03/15 02:13:05;;;;;;;31.88;13.95;;;3.80;99.90;;;;;;5091531;28;20041;-81
2022/03/15 02:15:31;;;;;;;32.70;13.30;;;3.70;99.90;;;;;;5081260;28;20040;-81
2022/03/15 02:17:57;;;;;;;30.02;12.77;;;3.70;99.90;;;;;;5091696;28;20051;-81
2022/03/15 02:20:23;;;;;;;26.85;13.68;;;3.70;99.90;;;;;;5093018;28;20042;-81
2022/03/15 02:22:49;;;;;;;38.33;15.45;;;3.70;99.90;;;;;;5090269;28;20064;-82
2022/03/15 02:25:15;;;;;;;27.67;14.35;;;3.70;99.90;;;;;;5087540;28;20108;-81
2022/03/15 02:27:41;;;;;;;34.00;15.20;;;3.70;99.90;;;;;;5091411;28;20401;-81
2022/03/15 02:30:07;;;;;;;32.92;16.35;;;3.80;99.90;;;;;;5090886;28;20130;-81
2022/03/15 02:32:34;;;;;;;38.28;16.23;;;3.80;99.90;;;;;;5090104;28;20044;-81
2022/03/15 02:35:00;;;;;;;34.15;15.80;;;3.80;99.90;;;;;;5105588;28;20040;-81
2022/03/15 02:37:26;;;;;;;37.50;16.38;;;3.80;99.90;;;;;;5090547;28;20092;-81
2022/03/15 02:39:52;;;;;;;38.30;16.75;;;3.80;99.90;;;;;;5094563;28;20039;-81
2022/03/15 02:42:18;;;;;;;33.17;16.85;;;3.90;99.90;;;;;;5073984;28;20486;-81
2022/03/15 02:44:44;;;;;;;33.00;17.17;;;3.90;99.90;;;;;;5076966;28;20048;-81
2022/03/15 02:47:10;;;;;;;34.45;17.17;;;4.00;99.90;;;;;;5091029;28;20380;-81
2022/03/15 02:49:36;;;;;;;36.38;16.42;;;4.00;99.90;;;;;;5074591;28;20100;-81
2022/03/15 02:52:02;;;;;;;38.03;17.38;;;4.10;99.90;;;;;;5093593;28;20036;-82
2022/03/15 02:54:28;;;;;;;43.22;17.80;;;4.10;99.90;;;;;;5093565;28;20037;-81
2022/03/15 02:56:54;;;;;;;36.55;17.45;;;4.10;99.90;;;;;;5090217;28;20032;-82
2022/03/15 02:59:20;;;;;;;41.28;17.48;;;4.20;99.90;;;;;;5095235;28;20103;-81
2022/03/15 03:01:48;;;;;;;34.03;17.85;;;4.20;99.90;;;;;;5064556;28;20079;-81
2022/03/15 03:04:15;;;;;;;38.63;18.80;;;4.30;99.90;;;;;;5074895;28;20036;-80
2022/03/15 03:06:41;;;;;;;39.35;17.75;;;4.30;99.90;;;;;;5094734;28;20126;-81
2022/03/15 03:09:07;;;;;;;37.45;18.48;;;4.40;99.90;;;;;;5095034;28;20036;-80
2022/03/15 03:11:33;;;;;;;31.67;15.90;;;4.40;99.90;;;;;;5093274;28;20048;-80
2022/03/15 03:14:00;;;;;;;37.47;16.75;;;4.50;99.90;;;;;;5122612;28;20039;-81
2022/03/15 03:16:26;;;;;;;30.20;15.82;;;4.50;99.90;;;;;;5098482;28;20051;-81
2022/03/15 03:18:58;;;;;;;35.30;16.05;;;5.40;99.90;;;;;;5101617;28;20044;-81
2022/03/15 03:21:28;;;;;;;41.63;15.88;;;4.60;99.90;;;;;;5105411;28;20077;-81
2022/03/15 03:23:55;;;;;;;32.72;14.60;;;4.70;99.90;;;;;;5102049;28;20058;-81
2022/03/15 03:26:23;;;;;;;36.23;14.23;;;4.70;99.90;;;;;;5090361;28;20044;-82
2022/03/15 03:28:50;;;;;;;30.73;14.82;;;4.70;99.90;;;;;;5094666;28;20297;-83
2022/03/15 03:31:16;;;;;;;36.30;14.45;;;4.80;99.90;;;;;;5093769;28;20100;-81
2022/03/15 03:33:42;;;;;;;34.28;13.27;;;4.80;99.90;;;;;;5091059;28;20039;-82
2022/03/15 03:36:09;;;;;;;31.05;13.48;;;4.90;99.90;;;;;;5086283;28;20052;-81
2022/03/15 03:38:35;;;;;;;28.45;13.30;;;4.90;99.90;;;;;;5094666;28;20044;-80
2022/03/15 03:41:02;;;;;;;30.92;13.32;;;4.90;99.90;;;;;;5097683;28;20036;-81
2022/03/15 03:43:28;;;;;;;34.05;13.43;;;5.00;99.90;;;;;;5094249;28;20156;-81
2022/03/15 03:45:55;;;;;;;32.55;12.18;;;5.00;99.90;;;;;;5096770;28;20060;-81
2022/03/15 03:48:22;;;;;;;31.63;13.55;;;5.00;99.90;;;;;;5084559;28;20505;-81
2022/03/15 03:50:48;;;;;;;30.50;13.07;;;5.10;99.90;;;;;;5096643;28;20043;-81
2022/03/15 03:53:15;;;;;;;42.53;13.38;;;5.10;99.90;;;;;;5072193;28;20036;-81
2022/03/15 03:55:40;;;;;;;28.02;12.65;;;5.10;99.90;;;;;;5097050;28;20406;-80
2022/03/15 03:58:06;;;;;;;31.52;13.10;;;5.20;99.90;;;;;;5096632;28;20062;-80
2022/03/15 04:00:32;;;;;;;32.70;13.43;;;5.20;99.90;;;;;;5095834;28;20040;-80
2022/03/15 04:02:58;;;;;;;32.17;13.07;;;5.20;99.90;;;;;;5095961;28;20062;-81
2022/03/15 04:05:35;;;;;;;32.15;12.65;;;5.20;99.90;;;;;;5088223;28;20054;-81
2022/03/15 04:08:01;;;;;;;31.48;12.77;;;5.30;99.90;;;;;;5089863;28;20055;-81
2022/03/15 04:10:28;;;;;;;27.75;11.93;;;5.30;99.90;;;;;;5099057;28;20048;-81
2022/03/15 04:12:55;;;;;;;30.75;11.77;;;5.30;99.90;;;;;;5101964;28;20040;-81
2022/03/15 04:15:22;;;;;;;37.58;13.25;;;5.30;99.90;;;;;;5073651;28;20133;-81
2022/03/15 04:17:48;;;;;;;35.35;13.32;;;5.30;99.90;;;;;;5076607;28;20055;-81
2022/03/15 04:20:14;;;;;;;32.65;13.18;;;5.40;99.90;;;;;;5100239;28;20046;-80
2022/03/15 04:22:40;;;;;;;29.55;12.85;;;5.90;99.90;;;;;;5105003;28;20064;-81
2022/03/15 04:25:06;;;;;;;27.13;13.30;;;5.40;99.90;;;;;;5084368;28;20097;-80
2022/03/15 04:27:32;;;;;;;35.85;12.98;;;5.40;99.90;;;;;;5095523;28;20081;-81
2022/03/15 04:29:58;;;;;;;41.40;13.80;;;5.50;99.90;;;;;;5096802;28;20048;-81
2022/03/15 04:32:24;;;;;;;34.22;13.73;;;5.50;99.90;;;;;;5102488;28;20036;-81
2022/03/15 04:34:50;;;;;;;35.05;13.18;;;5.50;99.90;;;;;;5096811;28;20047;-80
2022/03/15 04:37:16;;;;;;;37.00;12.82;;;5.50;99.90;;;;;;5096032;28;20036;-80
2022/03/15 04:39:41;;;;;;;27.58;12.88;;;5.60;99.90;;;;;;5099860;28;20539;-80
2022/03/15 04:42:07;;;;;;;31.38;12.38;;;5.60;99.90;;;;;;5094043;28;20062;-80
2022/03/15 04:44:33;;;;;;;37.30;12.65;;;5.60;99.90;;;;;;5081186;28;20054;-80
2022/03/15 04:46:58;;;;;;;36.85;12.23;;;5.70;99.90;;;;;;5093557;28;20071;-81
2022/03/15 04:49:24;;;;;;;32.95;11.95;;;5.60;99.90;;;;;;5085538;28;20043;-81
2022/03/15 04:51:50;;;;;;;31.88;11.77;;;5.70;99.90;;;;;;5089375;28;20069;-80
2022/03/15 04:54:16;;;;;;;31.38;12.82;;;5.70;99.90;;;;;;5092326;28;20048;-80
2022/03/15 04:56:43;;;;;;;30.00;12.07;;;5.80;99.90;;;;;;5094946;28;20048;-81
2022/03/15 04:59:08;;;;;;;25.33;11.32;;;5.80;99.90;;;;;;5099104;28;20036;-81
2022/03/15 05:01:34;;;;;;;30.38;12.07;;;5.80;99.90;;;;;;5101499;28;20043;-80
2022/03/15 05:04:00;;;;;;;36.05;11.90;;;6.30;99.90;;;;;;5100470;28;20047;-81
2022/03/15 05:06:26;;;;;;;33.22;12.82;;;5.80;99.90;;;;;;5101587;28;20037;-81
2022/03/15 05:08:52;;;;;;;29.02;12.50;;;5.80;99.90;;;;;;5091580;28;20094;-81
2022/03/15 05:11:18;;;;;;;36.92;12.88;;;5.80;99.90;;;;;;5096371;28;20110;-80
2022/03/15 05:13:47;;;;;;;36.90;12.95;;;5.80;99.90;;;;;;5103063;28;20110;-80
2022/03/15 05:16:18;;;;;;;29.50;12.45;;;5.80;99.90;;;;;;5096190;28;20036;-81
2022/03/15 05:18:45;;;;;;;27.40;11.40;;;5.90;99.90;;;;;;5091798;28;20040;-81
2022/03/15 05:21:16;;;;;;;34.00;13.48;;;5.90;99.90;;;;;;5083479;28;20502;-81
2022/03/15 05:23:42;;;;;;;31.33;12.13;;;5.80;99.90;;;;;;5091251;28;20093;-80
2022/03/15 05:26:08;;;;;;;30.02;13.18;;;5.80;99.90;;;;;;5090472;28;20036;-80
2022/03/15 05:28:34;;;;;;;29.25;13.23;;;6.00;99.90;;;;;;5089449;28;20036;-80
2022/03/15 05:30:59;;;;;;;27.80;13.65;;;5.90;99.90;;;;;;5089826;28;20047;-80
2022/03/15 05:33:30;;;;;;;31.95;14.20;;;5.80;99.90;;;;;;5092303;28;20036;-80
2022/03/15 05:35:57;;;;;;;34.10;14.48;;;5.90;99.90;;;;;;5091046;28;20127;-81
2022/03/15 05:38:23;;;;;;;31.38;13.88;;;5.90;99.90;;;;;;5093319;28;20032;-80
2022/03/15 05:40:49;;;;;;;38.10;14.48;;;5.90;99.90;;;;;;5088839;28;20127;-80
2022/03/15 05:43:14;;;;;;;34.70;15.40;;;5.80;99.90;;;;;;5101047;28;20102;-79
2022/03/15 05:45:40;;;;;;;32.63;15.13;;;5.80;99.90;;;;;;5114456;28;20013;-79
2022/03/15 05:48:06;;;;;;;30.60;14.50;;;5.90;99.90;;;;;;5108276;28;20103;-81
2022/03/15 05:50:32;;;;;;;31.48;15.75;;;5.90;99.90;;;;;;5108619;28;20043;-81
2022/03/15 05:53:03;;;;;;;38.72;16.33;;;5.90;99.90;;;;;;5107543;28;20047;-80
2022/03/15 05:55:30;;;;;;;41.40;16.58;;;5.90;99.90;;;;;;5111037;28;20032;-80
2022/03/15 05:57:56;;;;;;;37.85;16.75;;;5.90;99.90;;;;;;5110769;28;20031;-80
2022/03/15 06:00:22;;;;;;;34.58;17.30;;;5.90;99.90;;;;;;5108978;28;20028;-81
2022/03/15 06:02:48;;;;;;;37.45;15.52;;;5.90;99.90;;;;;;5098289;28;20043;-80
2022/03/15 06:05:14;;;;;;;37.88;16.92;;;5.90;99.90;;;;;;5104549;28;20058;-81
2022/03/15 06:07:47;;;;;;;33.97;16.88;;;5.90;99.90;;;;;;5102339;28;20109;-80
2022/03/15 06:10:13;;;;;;;37.70;16.13;;;5.90;99.90;;;;;;5093029;28;20032;-80
2022/03/15 06:12:39;;;;;;;34.72;15.32;;;5.90;99.90;;;;;;5088035;28;20040;-79
2022/03/15 06:15:05;;;;;;;39.97;16.85;;;5.90;99.90;;;;;;5076119;28;20047;-81
2022/03/15 06:17:34;;;;;;;33.03;15.02;;;5.80;99.90;;;;;;5090588;28;20045;-81
2022/03/15 06:19:59;;;;;;;35.08;15.98;;;5.80;99.90;;;;;;5098247;28;20031;-81
2022/03/15 06:22:25;;;;;;;38.45;16.05;;;5.80;99.90;;;;;;5093497;28;20047;-81
2022/03/15 06:24:50;;;;;;;35.65;15.57;;;5.80;99.90;;;;;;5096273;28;20040;-81
2022/03/15 06:27:16;;;;;;;45.83;16.85;;;5.80;99.90;;;;;;5099864;28;20035;-82
2022/03/15 06:29:42;;;;;;;35.65;16.27;;;5.80;99.90;;;;;;5094988;28;20040;-82
2022/03/15 06:32:08;;;;;;;34.55;15.85;;;5.90;99.90;;;;;;5092509;28;20044;-82
2022/03/15 06:34:33;;;;;;;30.98;14.98;;;5.90;99.90;;;;;;5092497;28;20500;-83
2022/03/15 06:37:00;;;;;;;39.47;16.77;;;5.90;99.90;;;;;;5093539;28;20051;-81
2022/03/15 06:39:25;;;;;;;36.92;17.02;;;5.90;99.90;;;;;;5095265;28;20043;-81
2022/03/15 06:41:51;;;;;;;40.10;16.80;;;5.90;99.90;;;;;;5091872;28;20070;-81
2022/03/15 06:44:17;;;;;;;39.95;17.83;;;5.90;99.90;;;;;;5094367;28;20070;-80
2022/03/15 06:46:43;;;;;;;43.70;18.05;;;6.00;99.90;;;;;;5094374;28;20052;-80
2022/03/15 06:49:09;;;;;;;35.45;16.42;;;6.00;99.90;;;;;;5095613;28;20071;-80
2022/03/15 06:51:37;;;;;;;35.45;17.95;;;6.00;99.90;;;;;;5097479;28;20044;-81
2022/03/15 06:54:03;;;;;;;39.55;18.58;;;6.10;99.90;;;;;;5095126;28;20385;-79
2022/03/15 06:56:29;;;;;;;43.50;18.23;;;6.60;99.90;;;;;;5096224;28;20044;-79
2022/03/15 06:58:54;;;;;;;39.88;18.25;;;6.10;99.90;;;;;;5100645;28;20055;-79
2022/03/15 07:01:20;;;;;;;44.58;20.02;;;6.60;99.90;;;;;;5098582;28;20071;-80
2022/03/15 07:03:46;;;;;;;46.95;19.45;;;6.20;99.90;;;;;;5088634;28;20123;-80
2022/03/15 07:06:12;;;;;;;36.30;17.42;;;6.20;99.90;;;;;;5072822;28;20040;-80
2022/03/15 07:08:38;;;;;;;37.70;18.75;;;6.20;99.90;;;;;;5088305;28;20036;-80
2022/03/15 07:11:03;;;;;;;38.92;19.38;;;6.20;99.90;;;;;;5090055;28;20097;-80
2022/03/15 07:13:29;;;;;;;44.95;20.30;;;6.30;99.90;;;;;;5086736;28;20059;-78
2022/03/15 07:15:55;;;;;;;45.15;19.35;;;6.30;99.90;;;;;;5092262;28;20043;-79
2022/03/15 07:18:21;;;;;;;38.40;19.77;;;6.30;99.90;;;;;;5102100;28;20390;-80
2022/03/15 07:20:47;;;;;;;42.58;19.08;;;6.30;99.90;;;;;;5105858;28;20075;-80
2022/03/15 07:23:13;;;;;;;45.35;21.88;;;6.30;99.90;;;;;;5095496;28;20040;-80
2022/03/15 07:25:38;;;;;;;44.22;21.38;;;6.30;99.90;;;;;;5102233;28;20051;-80
2022/03/15 07:28:04;;;;;;;41.80;21.13;;;6.30;99.90;;;;;;5102448;28;20036;-81
2022/03/15 07:30:30;;;;;;;42.55;20.85;;;6.40;99.90;;;;;;5077460;28;20044;-81
2022/03/15 07:32:59;;;;;;;40.83;20.83;;;6.40;99.90;;;;;;5103365;28;20403;-81
2022/03/15 07:35:25;;;;;;;51.67;22.08;;;6.40;99.90;;;;;;5105929;28;20085;-81
2022/03/15 07:37:56;;;;;;;47.78;21.63;;;6.40;99.90;;;;;;5106915;28;20426;-81
2022/03/15 07:40:23;;;;;;;45.50;22.58;;;6.50;99.90;;;;;;5102399;28;20137;-81
2022/03/15 07:42:49;;;;;;;40.50;22.05;;;6.50;99.90;;;;;;5087626;28;20049;-81
2022/03/15 07:45:15;;;;;;;50.20;21.55;;;6.50;99.90;;;;;;5082788;28;20078;-81
2022/03/15 07:47:41;;;;;;;42.10;21.23;;;6.50;99.90;;;;;;5088321;28;20056;-81
2022/03/15 07:50:07;;;;;;;44.97;21.02;;;7.00;99.90;;;;;;5088334;28;20102;-82
2022/03/15 07:52:33;;;;;;;48.60;19.40;;;6.60;99.90;;;;;;5096466;28;20048;-81
2022/03/15 07:54:58;;;;;;;38.83;19.08;;;6.60;99.90;;;;;;5093396;28;20042;-81
2022/03/15 07:57:25;;;;;;;37.35;17.23;;;6.60;99.90;;;;;;5097291;28;20040;-80
2022/03/15 07:59:51;;;;;;;42.05;18.52;;;6.60;99.90;;;;;;5096239;28;20058;-80
2022/03/15 08:02:17;;;;;;;39.38;19.10;;;6.60;99.90;;;;;;5096998;28;20044;-81
2022/03/15 08:04:43;;;;;;;36.47;18.83;;;6.60;99.90;;;;;;5085393;28;20053;-81
2022/03/15 08:07:09;;;;;;;39.40;19.40;;;6.70;99.90;;;;;;5095036;28;20067;-81
2022/03/15 08:09:35;;;;;;;47.75;19.63;;;6.50;99.90;;;;;;5091844;28;20059;-81
2022/03/15 08:12:01;;;;;;;40.90;18.83;;;6.70;99.90;;;;;;5096318;28;20115;-80
2022/03/15 08:14:27;;;;;;;37.55;19.55;;;6.70;99.90;;;;;;5093091;28;20506;-81
2022/03/15 08:16:52;;;;;;;41.28;20.23;;;6.70;99.90;;;;;;5094356;28;20040;-82
2022/03/15 08:19:18;;;;;;;48.80;19.95;;;6.80;99.90;;;;;;5094579;28;20055;-80
2022/03/15 08:21:44;;;;;;;39.70;19.30;;;6.80;99.90;;;;;;5088448;28;20040;-81
2022/03/15 08:24:11;;;;;;;40.60;20.60;;;6.80;99.90;;;;;;5100959;28;20506;-80
2022/03/15 08:26:40;;;;;;;38.90;19.95;;;6.90;99.90;;;;;;5095451;28;20049;-81
2022/03/15 08:29:07;;;;;;;57.95;26.77;;;6.90;99.90;;;;;;5092910;28;20059;-81
2022/03/15 08:31:34;;;;;;;48.03;23.08;;;6.90;99.90;;;;;;5094587;28;20040;-81
2022/03/15 08:33:59;;;;;;;42.58;21.15;;;7.00;99.90;;;;;;5075181;28;20044;-81
2022/03/15 08:36:25;;;;;;;48.75;23.08;;;7.00;99.90;;;;;;5096459;28;20375;-80
2022/03/15 08:38:51;;;;;;;40.72;21.77;;;7.00;99.90;;;;;;5080601;28;20040;-82
2022/03/15 08:41:17;;;;;;;46.78;24.20;;;7.10;99.90;;;;;;5093857;28;20044;-81
2022/03/15 08:43:42;;;;;;;44.72;24.02;;;7.10;99.90;;;;;;5097195;28;20097;-81
2022/03/15 08:46:08;;;;;;;46.70;23.88;;;7.20;99.90;;;;;;5096680;28;20060;-80
2022/03/15 08:48:34;;;;;;;44.05;23.70;;;7.20;99.90;;;;;;5097305;28;20044;-79
2022/03/15 08:51:01;;;;;;;54.95;24.75;;;7.20;99.90;;;;;;5088297;28;20094;-79
2022/03/15 08:53:33;;;;;;;40.92;23.25;;;7.50;99.90;;;;;;5076977;28;20110;-81
2022/03/15 08:56:01;;;;;;;42.75;23.58;;;7.30;99.90;;;;;;5087872;28;20043;-82
2022/03/15 08:58:26;;;;;;;47.92;23.80;;;7.30;99.90;;;;;;5097660;28;20040;-81
2022/03/15 09:00:52;;;;;;;46.85;23.35;;;7.30;99.90;;;;;;5092028;28;20039;-81
2022/03/15 09:03:18;;;;;;;43.20;24.13;;;7.40;99.90;;;;;;5096318;28;20044;-79
2022/03/15 09:05:44;;;;;;;46.58;25.38;;;7.40;99.90;;;;;;5095490;28;20044;-80
2022/03/15 09:08:10;;;;;;;43.97;24.08;;;7.50;99.90;;;;;;5095555;28;20078;-80
2022/03/15 09:10:35;;;;;;;45.97;26.48;;;7.50;99.90;;;;;;5092067;28;20403;-81
2022/03/15 09:13:03;;;;;;;43.90;25.67;;;7.60;99.90;;;;;;5097118;28;20119;-80
2022/03/15 09:15:29;;;;;;;45.80;26.23;;;7.60;99.90;;;;;;5098837;28;20376;-79
2022/03/15 09:17:57;;;;;;;46.85;25.77;;;7.80;99.90;;;;;;5096870;28;20085;-80
2022/03/15 09:20:24;;;;;;;46.20;24.77;;;8.30;99.90;;;;;;5073003;28;20047;-80
2022/03/15 09:22:50;;;;;;;46.47;25.58;;;7.80;99.90;;;;;;5086434;28;20040;-79
2022/03/15 09:25:15;;;;;;;42.78;23.73;;;7.90;99.90;;;;;;5102128;28;20054;-80
2022/03/15 09:27:41;;;;;;;41.40;23.58;;;7.90;99.90;;;;;;5104681;28;20052;-80
2022/03/15 09:30:07;;;;;;;46.33;25.50;;;7.90;99.90;;;;;;5102868;28;20186;-80
2022/03/15 09:32:33;;;;;;;38.40;24.58;;;8.10;99.90;;;;;;5101146;28;20043;-80
2022/03/15 09:34:59;;;;;;;37.53;22.75;;;8.20;99.90;;;;;;5102695;28;20040;-76
2022/03/15 09:37:25;;;;;;;39.67;24.33;;;8.30;99.90;;;;;;5101787;28;20044;-78
2022/03/15 09:39:52;;;;;;;40.65;22.98;;;8.60;99.90;;;;;;5106516;28;20079;-79
2022/03/15 09:42:22;;;;;;;39.42;23.25;;;8.80;99.90;;;;;;5090232;28;20047;-80
2022/03/15 09:44:48;;;;;;;41.63;23.23;;;8.30;99.90;;;;;;5077064;28;20056;-80
2022/03/15 09:47:17;;;;;;;44.55;23.42;;;8.40;99.90;;;;;;5094274;28;20052;-81
2022/03/15 09:49:44;;;;;;;44.00;23.80;;;8.40;99.90;;;;;;5093876;28;20132;-80
2022/03/15 09:52:11;;;;;;;42.45;24.08;;;8.40;99.90;;;;;;5083788;28;20052;-80
2022/03/15 09:54:38;;;;;;;36.95;22.08;;;8.40;99.90;;;;;;5075324;28;20047;-80
2022/03/15 09:57:05;;;;;;;40.90;24.05;;;8.50;99.90;;;;;;5089202;28;20139;-82
2022/03/15 09:59:32;;;;;;;43.53;23.15;;;9.30;99.90;;;;;;5091079;28;20506;-80
2022/03/15 10:01:59;;;;;;;40.92;22.67;;;8.70;99.90;;;;;;5075599;28;20055;-81
2022/03/15 10:04:26;;;;;;;44.05;23.55;;;8.70;99.90;;;;;;5094665;28;20070;-81
2022/03/15 10:06:54;;;;;;;37.00;22.30;;;8.80;99.90;;;;;;5095138;28;20482;-81
2022/03/15 10:09:24;;;;;;;38.10;22.33;;;8.90;99.90;;;;;;5093541;28;20036;-81
2022/03/15 10:11:50;;;;;;;40.22;22.65;;;9.10;99.90;;;;;;5081517;28;20100;-81
2022/03/15 10:14:18;;;;;;;40.53;22.27;;;9.20;99.90;;;;;;5087952;28;20037;-80
2022/03/15 10:16:44;;;;;;;;;;;10.30;99.90;;;;;;5086467;28;20048;-82
2022/03/15 10:19:13;;;;;;;40.55;21.13;;;9.90;99.90;;;;;;5094149;28;19927;-81
2022/03/15 10:21:49;;;;;;;;;;;9.60;99.90;;;;;;5107632;28;20036;-81
2022/03/15 10:24:18;;;;;;;35.22;20.50;;;9.70;99.90;;;;;;5106133;28;20314;-81
2022/03/15 10:26:46;;;;;;;41.03;21.15;;;9.70;99.90;;;;;;5102205;28;20044;-81
2022/03/15 10:29:13;;;;;;;36.97;21.17;;;9.70;99.90;;;;;;5106269;28;20089;-81
2022/03/15 10:31:40;;;;;;;36.17;20.52;;;9.70;99.90;;;;;;5111451;28;20481;-82
2022/03/15 10:34:08;;;;;;;40.80;21.45;;;9.80;99.90;;;;;;5104392;28;20084;-81
2022/03/15 10:36:45;;;;;;;38.65;20.52;;;10.60;99.90;;;;;;5096138;28;20422;-81
2022/03/15 10:39:14;;;;;;;31.92;19.88;;;9.90;99.90;;;;;;5085537;28;20118;-82
2022/03/15 10:41:59;;;;;;;39.67;20.48;;;10.00;99.90;;;;;;5093159;28;20093;-82
2022/03/15 10:44:30;;;;;;;34.38;20.48;;;10.10;99.90;;;;;;5074782;28;20132;-81
2022/03/15 10:47:13;;;;;;;39.35;21.48;;;10.10;99.90;;;;;;5084612;28;20056;-78
2022/03/15 10:49:49;;;;;;;30.42;18.77;;;10.20;99.90;;;;;;5095175;28;20052;-82
2022/03/15 10:52:35;;;;;;;29.55;19.75;;;10.10;99.90;;;;;;5093988;28;20040;-81
2022/03/15 10:55:12;;;;;;;30.75;19.90;;;10.10;99.90;;;;;;5093351;28;20105;-80
2022/03/15 10:58:10;;;;;;;33.70;18.45;;;10.10;99.90;;;;;;5093208;28;20490;-80
2022/03/15 11:00:39;;;;;;;36.17;19.15;;;10.10;99.90;;;;;;5094689;28;20429;-81
2022/03/15 11:03:10;;;;;;;30.50;19.05;;;10.20;99.90;;;;;;5093716;28;20040;-81
2022/03/15 11:05:40;;;;;;;34.80;19.45;;;10.10;99.90;;;;;;5104244;28;20048;-81
2022/03/15 11:08:11;;;;;;;36.20;18.27;;;10.20;99.90;;;;;;5079257;28;20097;-81
2022/03/15 11:10:40;;;;;;;28.02;17.30;;;10.40;99.90;;;;;;5093850;28;20131;-81
2022/03/15 11:13:11;;;;;;;30.40;16.92;;;10.20;99.90;;;;;;5093386;28;20058;-81
2022/03/15 11:15:42;;;;;;;29.58;16.50;;;10.20;99.90;;;;;;5094551;28;20397;-81
2022/03/15 11:18:12;;;;;;;26.77;15.70;;;10.40;99.90;;;;;;5094796;28;20040;-81
2022/03/15 11:20:41;;;;;;;26.88;15.20;;;10.30;99.90;;;;;;5095063;28;20052;-81
2022/03/15 11:23:09;;;;;;;27.45;14.95;;;10.20;99.90;;;;;;5094182;28;20475;-80
2022/03/15 11:25:38;;;;;;;22.75;14.65;;;10.30;99.90;;;;;;5076820;28;20072;-80
2022/03/15 11:28:09;;;;;;;29.00;15.25;;;10.20;99.90;;;;;;5070514;28;20494;-80
2022/03/15 11:30:36;;;;;;;30.60;16.50;;;10.10;99.90;;;;;;5096718;28;20407;-80
2022/03/15 11:33:04;;;;;;;30.55;17.88;;;10.10;99.90;;;;;;5078417;28;20044;-80
2022/03/15 11:35:32;;;;;;;29.88;17.27;;;10.10;99.90;;;;;;5096943;28;20040;-82
2022/03/15 11:38:00;;;;;;;38.28;17.75;;;10.20;99.90;;;;;;5079409;28;20483;-81
2022/03/15 11:40:26;;;;;;;;;;;10.00;99.90;;;;;;5095238;28;20119;-79
2022/03/15 11:43:15;;;;;;;31.30;17.02;;;10.00;99.90;;;;;;5077742;28;19967;-80
2022/03/15 11:46:03;;;;;;;28.38;16.55;;;10.10;99.90;;;;;;5096300;28;20076;-80
2022/03/15 11:48:53;;;;;;;24.63;15.35;;;9.90;99.90;;;;;;5077558;28;20410;-80
2022/03/15 11:51:41;;;;;;;29.77;15.55;;;10.50;99.90;;;;;;5079216;28;20123;-84
2022/03/15 11:54:37;;;;;;;27.00;16.17;;;9.90;99.90;;;;;;5090263;28;20040;-85
2022/03/15 11:57:10;;;;;;;37.05;18.20;;;9.90;99.90;;;;;;5091071;28;20044;-81
2022/03/15 11:59:50;;;;;;;37.13;17.60;;;10.40;99.90;;;;;;5080048;28;20048;-82
2022/03/15 12:02:48;;;;;;;29.42;18.30;;;10.80;99.90;;;;;;5092927;28;20089;-81
2022/03/15 12:05:20;;;;;;;35.67;21.00;;;9.80;99.90;;;;;;5084578;28;20406;-82
2022/03/15 12:08:05;;;;;;;28.73;17.75;;;9.70;99.90;;;;;;5104812;28;20040;-77
2022/03/15 12:10:36;;;;;;;33.33;18.92;;;9.70;99.90;;;;;;5095088;28;20044;-79
2022/03/15 12:13:03;;;;;;;30.88;18.27;;;9.80;99.90;;;;;;5095157;28;20101;-78
2022/03/15 12:15:38;;;;;;;34.30;18.38;;;9.80;99.90;;;;;;5095804;28;20131;-78
2022/03/15 12:18:18;;;;;;;34.08;18.83;;;10.60;99.90;;;;;;5096453;28;20118;-79
2022/03/15 12:20:46;;;;;;;27.30;17.23;;;9.90;99.90;;;;;;5087251;28;20047;-78
2022/03/15 12:23:22;;;;;;;28.65;16.33;;;9.90;99.90;;;;;;5091676;28;20110;-78
2022/03/15 12:25:56;;;;;;;37.15;18.00;;;9.90;99.90;;;;;;5094378;28;20436;-78
2022/03/15 12:28:32;;;;;;;31.25;18.65;;;9.90;99.90;;;;;;5093050;28;20051;-78
2022/03/15 12:31:08;;;;;;;33.20;18.90;;;10.00;99.90;;;;;;5089763;28;20081;-78
2022/03/15 12:33:35;;;;;;;32.38;18.17;;;10.00;99.90;;;;;;5103382;28;20101;-80
2022/03/15 12:36:07;;;;;;;30.00;15.50;;;10.10;99.90;;;;;;5101689;28;20044;-81
2022/03/15 12:38:41;;;;;;;32.20;16.50;;;10.10;99.90;;;;;;5100752;28;20069;-80
2022/03/15 12:41:08;;;;;;;32.65;16.42;;;10.20;99.90;;;;;;5090292;28;20108;-81